CMA-CGM Fort Saint Pierre — FQFM — position and weather

sailwx.info

Track history (hours):
 
Tides and Currents Weather Stations Pressure Air Temp Water Temp Dewpoint Dewpoint Depression Visibility Wind Speed Wind Dir Waves Ship Positions

CMA-CGM Fort Saint Pierre

Last reported at 2014-Sep-01 03:27 UTC. Time now 2014-Sep-03 02:17 UTC.
Position N 45°56' W 005°53'.

Length 197 m; beam 30 m.

Type: Ship (hazmat cat A). MMSI: 226328000.

Date/timePositionNaut miles runAvg speedWind from/ knotsBaromVisibWave heightAir tempDewpointWater temp
2014-Sep-01 03:27N 45°56' W 005°53'2319.0
2014-Sep-01 02:14N 46°06' W 005°23'1318.9
2014-Sep-01 01:32N 46°12' W 005°06'2719.0
2014-Sep-01 00:08N 46°24' W 004°31'1219.6
2014-Aug-31 23:32N 46°29' W 004°16'1919.1
2014-Aug-31 22:33N 46°37' W 003°51'1918.6
2014-Aug-31 21:33N 46°45' W 003°27'1918.7
2014-Aug-31 20:33N 46°53' W 003°02'1818.6
2014-Aug-31 19:33N 47°01' W 002°38'26 2.1
2014-Aug-31 07:15N 47°18' W 002°09'0 0.0
2014-Aug-31 06:28N 47°18' W 002°09'0 0.0
2014-Aug-31 05:31N 47°18' W 002°09'0 0.0
2014-Aug-31 04:30N 47°18' W 002°09'6 6.4
2014-Aug-31 03:29N 47°13' W 002°16'1211.3
2014-Aug-31 02:25N 47°04' W 002°27'1618.2
2014-Aug-31 01:33N 47°02' W 002°50'2020.3
2014-Aug-31 00:33N 47°10' W 003°18'7021.7
2014-Aug-30 21:19N 47°48' W 004°45'1722.4
2014-Aug-30 20:33N 47°57' W 005°06'2221.8
2014-Aug-30 19:33N 48°12' W 005°30'21116.2
2014-Aug-30 06:32N 49°41' W 000°39'2121.7
2014-Aug-30 05:33N 49°32' W 000°10'1212.3
2014-Aug-30 04:33N 49°28' E 000°08'1 0.7
2014-Aug-30 03:32N 49°28' E 000°09'0 0.0
2014-Aug-30 02:32N 49°28' E 000°09'0 0.0
2014-Aug-30 01:32N 49°28' E 000°09'0 0.0
2014-Aug-30 00:32N 49°28' E 000°09'0 0.0
2014-Aug-29 23:32N 49°28' E 000°09'0 0.0
2014-Aug-29 22:29N 49°28' E 000°09'0 0.0
2014-Aug-29 21:32N 49°28' E 000°09'0 0.0
2014-Aug-29 20:29N 49°28' E 000°09'0 0.0
2014-Aug-29 19:32N 49°28' E 000°09'0 0.0
2014-Aug-29 18:32N 49°28' E 000°09'0 0.0
2014-Aug-29 17:32N 49°28' E 000°09'0 0.0
2014-Aug-29 16:32N 49°28' E 000°09'0 0.0
2014-Aug-29 15:32N 49°28' E 000°09'0 0.0
2014-Aug-29 14:32N 49°28' E 000°09'0 0.0
2014-Aug-29 13:32N 49°28' E 000°09'0 0.0
2014-Aug-29 12:32N 49°28' E 000°09'0 0.0
2014-Aug-29 11:32N 49°28' E 000°09'0 0.0
2014-Aug-29 10:29N 49°28' E 000°09'0 0.0
2014-Aug-29 09:29N 49°28' E 000°09'0 0.0
2014-Aug-29 08:32N 49°28' E 000°09'0 0.0
2014-Aug-29 07:32N 49°28' E 000°09'0 0.0
2014-Aug-29 06:32N 49°28' E 000°09'0 0.0
2014-Aug-29 05:32N 49°28' E 000°09'0 0.0
2014-Aug-29 04:26N 49°28' E 000°09'0 0.0
2014-Aug-29 03:29N 49°28' E 000°09'0 0.0
2014-Aug-29 02:32N 49°28' E 000°09'0 0.0
2014-Aug-29 01:32N 49°28' E 000°09'3 3.4
2014-Aug-29 00:33N 49°29' E 000°04'6 6.1
2014-Aug-28 23:34N 49°26' E 000°12'1110.5
2014-Aug-28 22:33N 49°28' E 000°28'6 5.9
2014-Aug-28 21:31N 49°26' E 000°36'2 0.1
2014-Aug-27 23:30N 49°27' E 000°34'1010.5
2014-Aug-27 22:33N 49°26' E 000°19'1312.6
2014-Aug-27 21:33N 49°28' W 000°01'1010.1
2014-Aug-27 20:34N 49°35' W 000°11'4218.9
2014-Aug-27 18:19N 50°17' W 000°19'1418.5
2014-Aug-27 17:34N 50°27' W 000°04'2020.2
2014-Aug-27 16:33N 50°33' E 000°27'2019.6
2014-Aug-27 15:34N 50°43' E 000°54'2119.5
2014-Aug-27 14:29N 50°56' E 001°19'1617.5
2014-Aug-27 13:34N 51°06' E 001°39'1211.6
2014-Aug-27 12:32N 51°03' E 001°58'9 7.9
2014-Aug-27 11:27N 51°01' E 002°11'0 0.0
2014-Aug-27 10:30N 51°01' E 002°11'0 0.0
2014-Aug-27 08:34N 51°01' E 002°11'0 0.0
2014-Aug-27 05:25N 51°01' E 002°11'0 0.0
2014-Aug-27 04:21N 51°01' E 002°11'0 0.0
2014-Aug-27 03:12N 51°01' E 002°11'0 0.0
2014-Aug-27 02:30N 51°01' E 002°11'0 0.0
2014-Aug-27 01:27N 51°01' E 002°11'0 0.0
2014-Aug-27 00:30N 51°01' E 002°11'0 0.0
2014-Aug-26 23:33N 51°01' E 002°11'0 0.0
2014-Aug-26 22:28N 51°01' E 002°11'0 0.0
2014-Aug-26 19:24N 51°01' E 002°11'0 0.0
2014-Aug-26 18:13N 51°01' E 002°11'0 0.0
2014-Aug-26 17:06N 51°01' E 002°11'0 0.0
2014-Aug-26 16:27N 51°01' E 002°11'0 0.0
2014-Aug-26 15:19N 51°01' E 002°11'0 0.0
2014-Aug-26 14:12N 51°01' E 002°11'0 0.0
2014-Aug-26 13:21N 51°01' E 002°11'0 0.0
2014-Aug-26 12:30N 51°01' E 002°11'0 0.0
2014-Aug-26 11:21N 51°01' E 002°11'0 0.0
2014-Aug-26 10:27N 51°01' E 002°11'0 0.0
2014-Aug-26 09:30N 51°01' E 002°11'0 0.0
2014-Aug-26 08:33N 51°01' E 002°11'0 0.0
2014-Aug-26 07:30N 51°01' E 002°11'0 0.0
2014-Aug-26 06:30N 51°01' E 002°11'0 0.0
2014-Aug-26 05:30N 51°01' E 002°11'0 0.0
2014-Aug-26 04:30N 51°01' E 002°11'0 0.0
2014-Aug-26 03:30N 51°01' E 002°11'0 0.0
2014-Aug-26 02:30N 51°01' E 002°11'0 0.0
2014-Aug-26 01:33N 51°01' E 002°11'0 0.0
2014-Aug-26 00:33N 51°01' E 002°11'0 0.0
2014-Aug-25 23:31N 51°01' E 002°11'0 0.0
2014-Aug-25 22:33N 51°01' E 002°11'0 0.0
2014-Aug-25 21:33N 51°01' E 002°11'0 0.0
2014-Aug-25 20:30N 51°01' E 002°11'0 0.0
2014-Aug-25 19:33N 51°01' E 002°11'0 0.0
2014-Aug-25 18:33N 51°01' E 002°11'0 0.0
2014-Aug-25 17:33N 51°01' E 002°11'0 0.0
2014-Aug-25 16:22N 51°01' E 002°11'0 0.0
2014-Aug-25 15:12N 51°01' E 002°11'0 0.0
2014-Aug-25 14:27N 51°01' E 002°11'0 0.0
2014-Aug-25 13:34N 51°01' E 002°11'0 0.0
2014-Aug-25 12:06N 51°01' E 002°11'0 0.0
2014-Aug-25 11:22N 51°01' E 002°11'0 0.0
2014-Aug-25 10:30N 51°01' E 002°11'0 0.0
2014-Aug-25 09:28N 51°01' E 002°11'0 0.0
2014-Aug-25 08:31N 51°01' E 002°11'0 0.0
2014-Aug-25 07:33N 51°01' E 002°11'0 0.0
2014-Aug-25 06:18N 51°01' E 002°11'0 0.0
2014-Aug-25 05:33N 51°01' E 002°11'0 0.0
2014-Aug-25 04:33N 51°01' E 002°11'0 0.0
2014-Aug-25 03:27N 51°01' E 002°11'0 0.1
2014-Aug-25 02:33N 51°01' E 002°11'9 9.1
2014-Aug-25 01:31N 51°02' E 001°56'1211.9
2014-Aug-25 00:33N 50°60' E 001°38'4515.1
2014-Aug-24 21:34N 50°27' E 000°49'2120.6
2014-Aug-24 20:33N 50°21' E 000°18'  
Track history (hours):
 
Tides and Currents Weather Stations Pressure Air Temp Water Temp Dewpoint Dewpoint Depression Visibility Wind Speed Wind Dir Waves Ship Positions

CMA-CGM Fort Saint Pierre

Last reported at 2014-Sep-01 03:27 UTC. Time now 2014-Sep-03 02:17 UTC.
Position N 45°56' W 005°53'.

Length 197 m; beam 30 m.

Type: Ship (hazmat cat A). MMSI: 226328000.

Date/timePositionNaut miles runAvg speedWind from/ knotsBaromVisibWave heightAir tempDewpointWater temp
2014-Sep-01 03:27N 45°56' W 005°53'2319.0
2014-Sep-01 02:14N 46°06' W 005°23'1318.9
2014-Sep-01 01:32N 46°12' W 005°06'2719.0
2014-Sep-01 00:08N 46°24' W 004°31'1219.6
2014-Aug-31 23:32N 46°29' W 004°16'1919.1
2014-Aug-31 22:33N 46°37' W 003°51'1918.6
2014-Aug-31 21:33N 46°45' W 003°27'1918.7
2014-Aug-31 20:33N 46°53' W 003°02'1818.6
2014-Aug-31 19:33N 47°01' W 002°38'26 2.1
2014-Aug-31 07:15N 47°18' W 002°09'0 0.0
2014-Aug-31 06:28N 47°18' W 002°09'0 0.0
2014-Aug-31 05:31N 47°18' W 002°09'0 0.0
2014-Aug-31 04:30N 47°18' W 002°09'6 6.4
2014-Aug-31 03:29N 47°13' W 002°16'1211.3
2014-Aug-31 02:25N 47°04' W 002°27'1618.2
2014-Aug-31 01:33N 47°02' W 002°50'2020.3
2014-Aug-31 00:33N 47°10' W 003°18'7021.7
2014-Aug-30 21:19N 47°48' W 004°45'1722.4
2014-Aug-30 20:33N 47°57' W 005°06'2221.8
2014-Aug-30 19:33N 48°12' W 005°30'21116.2
2014-Aug-30 06:32N 49°41' W 000°39'2121.7
2014-Aug-30 05:33N 49°32' W 000°10'1212.3
2014-Aug-30 04:33N 49°28' E 000°08'1 0.7
2014-Aug-30 03:32N 49°28' E 000°09'0 0.0
2014-Aug-30 02:32N 49°28' E 000°09'0 0.0
2014-Aug-30 01:32N 49°28' E 000°09'0 0.0
2014-Aug-30 00:32N 49°28' E 000°09'0 0.0
2014-Aug-29 23:32N 49°28' E 000°09'0 0.0
2014-Aug-29 22:29N 49°28' E 000°09'0 0.0
2014-Aug-29 21:32N 49°28' E 000°09'0 0.0
2014-Aug-29 20:29N 49°28' E 000°09'0 0.0
2014-Aug-29 19:32N 49°28' E 000°09'0 0.0
2014-Aug-29 18:32N 49°28' E 000°09'0 0.0
2014-Aug-29 17:32N 49°28' E 000°09'0 0.0
2014-Aug-29 16:32N 49°28' E 000°09'0 0.0
2014-Aug-29 15:32N 49°28' E 000°09'0 0.0
2014-Aug-29 14:32N 49°28' E 000°09'0 0.0
2014-Aug-29 13:32N 49°28' E 000°09'0 0.0
2014-Aug-29 12:32N 49°28' E 000°09'0 0.0
2014-Aug-29 11:32N 49°28' E 000°09'0 0.0
2014-Aug-29 10:29N 49°28' E 000°09'0 0.0
2014-Aug-29 09:29N 49°28' E 000°09'0 0.0
2014-Aug-29 08:32N 49°28' E 000°09'0 0.0
2014-Aug-29 07:32N 49°28' E 000°09'0 0.0
2014-Aug-29 06:32N 49°28' E 000°09'0 0.0
2014-Aug-29 05:32N 49°28' E 000°09'0 0.0
2014-Aug-29 04:26N 49°28' E 000°09'0 0.0
2014-Aug-29 03:29N 49°28' E 000°09'0 0.0
2014-Aug-29 02:32N 49°28' E 000°09'0 0.0
2014-Aug-29 01:32N 49°28' E 000°09'3 3.4
2014-Aug-29 00:33N 49°29' E 000°04'6 6.1
2014-Aug-28 23:34N 49°26' E 000°12'1110.5
2014-Aug-28 22:33N 49°28' E 000°28'6 5.9
2014-Aug-28 21:31N 49°26' E 000°36'2 0.1
2014-Aug-27 23:30N 49°27' E 000°34'1010.5
2014-Aug-27 22:33N 49°26' E 000°19'1312.6
2014-Aug-27 21:33N 49°28' W 000°01'1010.1
2014-Aug-27 20:34N 49°35' W 000°11'4218.9
2014-Aug-27 18:19N 50°17' W 000°19'1418.5
2014-Aug-27 17:34N 50°27' W 000°04'2020.2
2014-Aug-27 16:33N 50°33' E 000°27'2019.6
2014-Aug-27 15:34N 50°43' E 000°54'2119.5
2014-Aug-27 14:29N 50°56' E 001°19'1617.5
2014-Aug-27 13:34N 51°06' E 001°39'1211.6
2014-Aug-27 12:32N 51°03' E 001°58'9 7.9
2014-Aug-27 11:27N 51°01' E 002°11'0 0.0
2014-Aug-27 10:30N 51°01' E 002°11'0 0.0
2014-Aug-27 08:34N 51°01' E 002°11'0 0.0
2014-Aug-27 05:25N 51°01' E 002°11'0 0.0
2014-Aug-27 04:21N 51°01' E 002°11'0 0.0
2014-Aug-27 03:12N 51°01' E 002°11'0 0.0
2014-Aug-27 02:30N 51°01' E 002°11'0 0.0
2014-Aug-27 01:27N 51°01' E 002°11'0 0.0
2014-Aug-27 00:30N 51°01' E 002°11'0 0.0
2014-Aug-26 23:33N 51°01' E 002°11'0 0.0
2014-Aug-26 22:28N 51°01' E 002°11'0 0.0
2014-Aug-26 19:24N 51°01' E 002°11'0 0.0
2014-Aug-26 18:13N 51°01' E 002°11'0 0.0
2014-Aug-26 17:06N 51°01' E 002°11'0 0.0
2014-Aug-26 16:27N 51°01' E 002°11'0 0.0
2014-Aug-26 15:19N 51°01' E 002°11'0 0.0
2014-Aug-26 14:12N 51°01' E 002°11'0 0.0
2014-Aug-26 13:21N 51°01' E 002°11'0 0.0
2014-Aug-26 12:30N 51°01' E 002°11'0 0.0
2014-Aug-26 11:21N 51°01' E 002°11'0 0.0
2014-Aug-26 10:27N 51°01' E 002°11'0 0.0
2014-Aug-26 09:30N 51°01' E 002°11'0 0.0
2014-Aug-26 08:33N 51°01' E 002°11'0 0.0
2014-Aug-26 07:30N 51°01' E 002°11'0 0.0
2014-Aug-26 06:30N 51°01' E 002°11'0 0.0
2014-Aug-26 05:30N 51°01' E 002°11'0 0.0
2014-Aug-26 04:30N 51°01' E 002°11'0 0.0
2014-Aug-26 03:30N 51°01' E 002°11'0 0.0
2014-Aug-26 02:30N 51°01' E 002°11'0 0.0
2014-Aug-26 01:33N 51°01' E 002°11'0 0.0
2014-Aug-26 00:33N 51°01' E 002°11'0 0.0
2014-Aug-25 23:31N 51°01' E 002°11'0 0.0
2014-Aug-25 22:33N 51°01' E 002°11'0 0.0
2014-Aug-25 21:33N 51°01' E 002°11'0 0.0
2014-Aug-25 20:30N 51°01' E 002°11'0 0.0
2014-Aug-25 19:33N 51°01' E 002°11'0 0.0
2014-Aug-25 18:33N 51°01' E 002°11'0 0.0
2014-Aug-25 17:33N 51°01' E 002°11'0 0.0
2014-Aug-25 16:22N 51°01' E 002°11'0 0.0
2014-Aug-25 15:12N 51°01' E 002°11'0 0.0
2014-Aug-25 14:27N 51°01' E 002°11'0 0.0
2014-Aug-25 13:34N 51°01' E 002°11'0 0.0
2014-Aug-25 12:06N 51°01' E 002°11'0 0.0
2014-Aug-25 11:22N 51°01' E 002°11'0 0.0
2014-Aug-25 10:30N 51°01' E 002°11'0 0.0
2014-Aug-25 09:28N 51°01' E 002°11'0 0.0
2014-Aug-25 08:31N 51°01' E 002°11'0 0.0
2014-Aug-25 07:33N 51°01' E 002°11'0 0.0
2014-Aug-25 06:18N 51°01' E 002°11'0 0.0
2014-Aug-25 05:33N 51°01' E 002°11'0 0.0
2014-Aug-25 04:33N 51°01' E 002°11'0 0.0
2014-Aug-25 03:27N 51°01' E 002°11'0 0.1
2014-Aug-25 02:33N 51°01' E 002°11'9 9.1
2014-Aug-25 01:31N 51°02' E 001°56'1211.9
2014-Aug-25 00:33N 50°60' E 001°38'4515.1
2014-Aug-24 21:34N 50°27' E 000°49'2120.6
2014-Aug-24 20:33N 50°21' E 000°18'  

Dump ship's entire track history